createdAt,value
2023-02-17T00:03:47.572Z,65.75
2023-02-17T00:08:49.033Z,76.45
2023-02-17T00:13:50.499Z,61.45
2023-02-17T00:18:51.972Z,58.78
2023-02-17T00:23:53.441Z,59.30
2023-02-17T00:28:54.924Z,52.50
2023-02-17T00:33:56.401Z,49.72
2023-02-17T00:38:57.885Z,53.72
2023-02-17T00:43:59.361Z,50.50
2023-02-17T00:49:00.821Z,55.45
2023-02-17T00:54:02.254Z,53.00
2023-02-17T00:59:03.717Z,53.50
2023-02-17T01:04:05.150Z,53.83
2023-02-17T01:09:06.567Z,51.35
2023-02-17T01:14:08.052Z,48.50
2023-02-17T01:19:09.505Z,55.65
2023-02-17T01:24:10.938Z,51.72
2023-02-17T01:29:12.373Z,47.90
2023-02-17T01:34:13.886Z,47.85
2023-02-17T01:39:15.348Z,51.40
2023-02-17T01:44:16.784Z,51.45
2023-02-17T01:49:18.223Z,46.05
2023-02-17T01:54:19.680Z,48.13
2023-02-17T01:59:21.161Z,54.30
2023-02-17T02:04:22.623Z,54.30
2023-02-17T02:09:24.086Z,49.67
2023-02-17T02:14:25.520Z,66.63
2023-02-17T02:19:26.945Z,63.20
2023-02-17T02:24:28.368Z,54.47
2023-02-17T02:29:29.786Z,66.60
2023-02-17T02:34:31.251Z,54.60
2023-02-17T02:39:32.689Z,53.80
2023-02-17T02:44:34.155Z,44.50
2023-02-17T02:49:35.592Z,41.90
2023-02-17T02:54:37.021Z,45.45
2023-02-17T02:59:38.490Z,42.60
2023-02-17T03:04:39.960Z,43.40
2023-02-17T03:09:41.419Z,48.53
2023-02-17T03:14:42.903Z,49.67
2023-02-17T03:19:44.365Z,43.28
2023-02-17T03:24:45.786Z,41.80
2023-02-17T03:29:47.255Z,45.75
2023-02-17T03:34:48.701Z,44.35
2023-02-17T03:39:50.166Z,45.35
2023-02-17T03:44:51.597Z,44.63
2023-02-17T03:49:53.056Z,41.15
2023-02-17T03:54:54.491Z,41.45
2023-02-17T03:59:56.091Z,44.63
2023-02-17T04:04:57.578Z,42.90
2023-02-17T04:09:59.040Z,39.33
2023-02-17T04:15:00.521Z,42.45
2023-02-17T04:20:01.969Z,41.13
2023-02-17T04:25:03.448Z,44.33
2023-02-17T04:30:04.950Z,47.47
2023-02-17T04:35:06.424Z,51.80
2023-02-17T04:40:07.885Z,39.15
2023-02-17T04:45:09.350Z,35.50
2023-02-17T04:50:10.849Z,39.42
2023-02-17T04:55:12.307Z,39.90
2023-02-17T05:00:13.736Z,44.15
2023-02-17T05:05:15.229Z,40.17
2023-02-17T05:10:16.752Z,44.80
2023-02-17T05:15:18.203Z,44.67
2023-02-17T05:20:19.643Z,46.15
2023-02-17T05:25:21.117Z,43.85
2023-02-17T05:30:22.584Z,44.55
2023-02-17T05:35:24.091Z,41.60
2023-02-17T05:40:25.534Z,41.17
2023-02-17T05:45:27.008Z,45.45
2023-02-17T05:50:28.446Z,41.65
2023-02-17T05:55:29.905Z,45.65
2023-02-17T06:00:31.333Z,43.22
2023-02-17T06:05:32.784Z,41.85
2023-02-17T06:10:34.245Z,49.90
2023-02-17T06:15:35.680Z,50.75
2023-02-17T06:20:37.098Z,53.55
2023-02-17T06:25:38.511Z,50.20
2023-02-17T06:30:39.925Z,48.53
2023-02-17T06:35:41.395Z,58.15
2023-02-17T06:40:42.835Z,49.78
2023-02-17T06:45:44.287Z,56.08
2023-02-17T06:50:45.781Z,55.13
2023-02-17T06:55:47.369Z,48.45
2023-02-17T07:00:48.800Z,53.30
2023-02-17T07:05:50.259Z,51.13
2023-02-17T07:10:51.691Z,54.97
2023-02-17T07:15:53.118Z,51.33
2023-02-17T07:20:54.569Z,53.28
2023-02-17T07:25:56.034Z,49.17
2023-02-17T07:30:57.476Z,46.28
2023-02-17T07:35:58.913Z,49.20
2023-02-17T07:41:00.374Z,45.63
2023-02-17T07:46:01.817Z,43.45
2023-02-17T07:51:03.306Z,45.90
2023-02-17T07:56:05.035Z,47.53
2023-02-17T08:01:06.714Z,49.15
2023-02-17T08:06:08.358Z,47.47
2023-02-17T08:11:09.945Z,47.80
2023-02-17T08:16:11.432Z,46.13
2023-02-17T08:21:12.883Z,42.85
2023-02-17T08:26:14.306Z,45.85
2023-02-17T08:31:15.866Z,44.72
2023-02-17T08:36:17.388Z,41.97
2023-02-17T08:41:18.843Z,48.47
2023-02-17T08:46:20.284Z,47.58
2023-02-17T08:51:21.808Z,47.65
2023-02-17T08:56:23.275Z,50.08
2023-02-17T09:01:24.802Z,48.38
2023-02-17T09:06:26.378Z,46.38
2023-02-17T09:11:27.893Z,43.17
2023-02-17T09:16:29.390Z,41.42
2023-02-17T09:21:30.910Z,41.88
2023-02-17T09:26:32.391Z,40.08
2023-02-17T09:31:33.964Z,37.45
2023-02-17T09:36:35.621Z,34.58
2023-02-17T09:41:37.046Z,38.42
2023-02-17T09:46:38.550Z,31.80
2023-02-17T09:51:40.044Z,32.80
2023-02-17T09:56:41.583Z,36.70
2023-02-17T10:01:43.112Z,34.60
2023-02-17T10:06:44.572Z,32.88
2023-02-17T10:11:46.039Z,34.33
2023-02-17T10:16:47.517Z,33.13
2023-02-17T10:21:48.983Z,32.67
2023-02-17T10:26:50.465Z,26.23
2023-02-17T10:31:51.957Z,29.33
2023-02-17T10:36:53.423Z,31.35
2023-02-17T10:41:54.851Z,31.38
2023-02-17T10:46:56.307Z,31.80
2023-02-17T10:51:57.776Z,29.15
2023-02-17T10:56:59.237Z,31.77
2023-02-17T11:02:00.714Z,29.27
2023-02-17T11:07:02.198Z,29.90
2023-02-17T11:12:03.662Z,29.17
2023-02-17T11:17:05.141Z,30.27
2023-02-17T11:22:06.587Z,28.33
2023-02-17T11:27:08.066Z,29.70
2023-02-17T11:32:09.547Z,29.95
2023-02-17T11:37:11.017Z,26.92
2023-02-17T11:42:12.450Z,26.75
2023-02-17T11:47:13.879Z,25.80
2023-02-17T11:52:15.299Z,23.38
2023-02-17T11:57:16.830Z,19.98
2023-02-17T12:02:18.343Z,14.88
2023-02-17T12:07:19.828Z,15.07
2023-02-17T12:12:21.286Z,18.20
2023-02-17T12:17:22.719Z,17.67
2023-02-17T12:22:24.144Z,15.48
2023-02-17T12:27:25.572Z,14.98
2023-02-17T12:32:26.997Z,15.30
2023-02-17T12:37:28.461Z,15.32
2023-02-17T12:42:29.884Z,13.88
2023-02-17T12:47:31.342Z,17.67
2023-02-17T12:52:32.810Z,16.17
2023-02-17T12:57:34.295Z,15.80
2023-02-17T13:02:35.788Z,16.50
2023-02-17T13:07:37.279Z,17.52
2023-02-17T13:12:38.874Z,12.90
2023-02-17T13:17:40.356Z,17.58
2023-02-17T13:22:41.823Z,20.33
2023-02-17T13:27:43.257Z,20.13
2023-02-17T13:32:44.684Z,25.13
2023-02-17T13:37:46.148Z,22.92
2023-02-17T13:42:47.600Z,21.80
2023-02-17T13:47:49.061Z,21.63
2023-02-17T13:52:50.542Z,22.38
2023-02-17T13:57:52.022Z,19.75
2023-02-17T14:02:53.499Z,22.88
2023-02-17T14:07:54.969Z,20.70
2023-02-17T14:12:56.473Z,23.15
2023-02-17T14:17:57.931Z,23.10
2023-02-17T14:23:04.276Z,24.23
2023-02-17T14:28:05.962Z,22.10
2023-02-17T14:33:07.421Z,23.65
2023-02-17T14:38:08.887Z,23.77
2023-02-17T14:43:10.316Z,22.38
2023-02-17T14:48:11.765Z,20.23
2023-02-17T14:53:13.267Z,18.42
2023-02-17T14:58:14.711Z,17.48
2023-02-17T15:03:16.129Z,14.13
2023-02-17T15:08:17.599Z,14.68
2023-02-17T15:13:19.069Z,12.73
2023-02-17T15:18:20.542Z,16.10
2023-02-17T15:23:22.006Z,14.65
2023-02-17T15:28:23.577Z,11.18
2023-02-17T15:33:25.002Z,11.18
2023-02-17T15:38:26.458Z,12.20
2023-02-17T15:43:27.930Z,9.23
2023-02-17T15:48:29.391Z,8.50
2023-02-17T15:53:30.854Z,8.20
2023-02-17T15:58:32.313Z,8.95
2023-02-17T16:03:33.816Z,7.90
2023-02-17T16:08:35.318Z,7.90
2023-02-17T16:13:36.804Z,9.95
2023-02-17T16:18:38.268Z,7.68
2023-02-17T16:23:39.722Z,9.60
2023-02-17T16:28:41.187Z,10.98
2023-02-17T16:33:42.645Z,13.55
2023-02-17T16:38:44.074Z,13.40
2023-02-17T16:43:45.528Z,12.85
2023-02-17T16:48:46.967Z,12.27
2023-02-17T16:53:48.425Z,14.07
2023-02-17T16:58:49.851Z,9.80
2023-02-17T17:03:51.343Z,11.20
2023-02-17T17:08:52.829Z,11.32
2023-02-17T17:13:54.268Z,11.13
2023-02-17T17:18:55.722Z,10.48
2023-02-17T17:23:57.168Z,11.40
2023-02-17T17:28:58.607Z,11.25
2023-02-17T17:34:00.101Z,11.45
2023-02-17T17:39:01.535Z,10.13
2023-02-17T17:44:03.015Z,7.63
2023-02-17T17:49:04.450Z,4.55
2023-02-17T17:54:05.935Z,8.02
2023-02-17T17:59:07.464Z,6.18
2023-02-17T18:04:08.986Z,6.25
2023-02-17T18:09:13.297Z,5.38
2023-02-17T18:14:18.615Z,5.90
2023-02-17T18:19:20.150Z,6.88
2023-02-17T18:24:21.656Z,8.63
2023-02-17T18:29:23.113Z,5.30
2023-02-17T18:34:24.618Z,4.65
2023-02-17T18:39:26.122Z,4.28
2023-02-17T18:44:27.646Z,5.63
2023-02-17T18:49:29.105Z,5.95
2023-02-17T18:54:30.640Z,4.28
2023-02-17T18:59:32.110Z,4.18
2023-02-17T19:04:33.561Z,5.45
2023-02-17T19:09:35.021Z,5.68
2023-02-17T19:14:36.444Z,5.68
2023-02-17T19:19:37.864Z,4.68
2023-02-17T19:24:39.395Z,6.28
2023-02-17T19:29:40.940Z,4.68
2023-02-17T19:34:42.455Z,4.65
2023-02-17T19:39:44.068Z,5.22
2023-02-17T19:44:45.734Z,6.68
2023-02-17T19:49:47.389Z,4.85
2023-02-17T19:54:49.033Z,5.45
2023-02-17T19:59:50.554Z,5.60
2023-02-17T20:04:52.126Z,5.18
2023-02-17T20:09:53.745Z,8.15
2023-02-17T20:14:55.396Z,6.70
2023-02-17T20:19:57.052Z,5.80
2023-02-17T20:24:59.030Z,5.28
2023-02-17T20:30:00.873Z,5.15
2023-02-17T20:35:02.878Z,5.72
2023-02-17T20:40:04.522Z,5.75
2023-02-17T20:45:06.167Z,6.63
2023-02-17T20:50:07.644Z,7.13
2023-02-17T20:55:09.135Z,9.68
2023-02-17T21:00:10.596Z,10.25
2023-02-17T21:05:12.025Z,6.68
2023-02-17T21:10:13.454Z,6.47
2023-02-17T21:15:14.935Z,7.50
2023-02-17T21:20:16.408Z,6.68
2023-02-17T21:25:17.893Z,5.22
2023-02-17T21:30:19.344Z,6.40
2023-02-17T21:35:20.812Z,5.53
2023-02-17T21:40:22.249Z,4.85
2023-02-17T21:45:23.722Z,4.63
2023-02-17T21:50:25.159Z,4.13
2023-02-17T21:55:26.623Z,6.20
2023-02-17T22:00:28.049Z,4.30
2023-02-17T22:05:30.559Z,5.43
2023-02-17T22:10:32.016Z,5.40
2023-02-17T22:15:33.485Z,6.30
2023-02-17T22:20:34.941Z,4.55
2023-02-17T22:25:36.398Z,3.47
2023-02-17T22:30:37.869Z,3.63
2023-02-17T22:35:39.294Z,2.70
2023-02-17T22:40:40.777Z,3.20
2023-02-17T22:45:42.225Z,2.88
2023-02-17T22:50:43.669Z,3.20
2023-02-17T22:55:45.107Z,6.72
2023-02-17T23:00:46.541Z,7.22
2023-02-17T23:05:48.039Z,4.88
2023-02-17T23:10:49.513Z,3.15
2023-02-17T23:15:50.940Z,2.67
2023-02-17T23:20:52.372Z,4.80
2023-02-17T23:25:53.808Z,4.70
2023-02-17T23:30:55.290Z,6.20
2023-02-17T23:35:56.787Z,4.57
2023-02-17T23:40:58.254Z,5.85
2023-02-17T23:45:59.735Z,6.63
2023-02-17T23:51:01.221Z,1.85
2023-02-17T23:56:02.648Z,2.83
